createdAt,value
2023-03-23T20:48:45.777Z,3.45
2023-03-23T20:51:13.402Z,3.22
2023-03-23T20:53:40.890Z,5.28
2023-03-23T20:56:09.630Z,4.15
2023-03-23T20:58:37.966Z,2.22
2023-03-23T21:01:06.557Z,8.40
2023-03-23T21:03:40.006Z,7.30
2023-03-23T21:06:08.486Z,6.88
2023-03-23T21:08:38.592Z,5.22
2023-03-23T21:11:10.000Z,5.43
2023-03-23T21:13:37.267Z,52.45
2023-03-23T21:16:05.959Z,51.55
2023-03-23T21:18:33.007Z,50.80
2023-03-23T21:21:01.222Z,49.00
2023-03-23T21:23:30.147Z,46.45
2023-03-23T21:26:03.179Z,46.38
2023-03-23T21:28:30.653Z,46.47
2023-03-23T21:31:03.362Z,43.75
2023-03-23T21:33:30.811Z,44.60
2023-03-23T21:35:58.207Z,42.97
2023-03-23T21:38:27.914Z,41.38
2023-03-23T21:40:56.966Z,41.42
2023-03-23T21:43:27.561Z,42.20
2023-03-23T21:45:59.015Z,41.08
2023-03-23T21:48:29.814Z,47.15
2023-03-23T21:50:57.218Z,43.72
2023-03-23T21:53:25.409Z,42.08
2023-03-23T21:55:52.829Z,41.30
2023-03-23T21:58:22.076Z,40.50
2023-03-23T22:00:50.167Z,39.47
2023-03-23T22:03:18.852Z,41.13
2023-03-23T22:05:46.431Z,40.08
2023-03-23T22:08:13.804Z,38.70
2023-03-23T22:10:42.880Z,39.78
2023-03-23T22:13:28.948Z,39.50
2023-03-23T22:15:58.306Z,39.78
2023-03-23T22:18:25.399Z,39.75
2023-03-23T22:20:52.782Z,40.65
2023-03-23T22:23:19.849Z,38.72
2023-03-23T22:25:47.531Z,40.10
2023-03-23T22:28:14.449Z,40.30
2023-03-23T22:30:41.668Z,39.42
2023-03-23T22:33:08.743Z,38.88
2023-03-23T22:35:36.197Z,39.20
2023-03-23T22:38:03.474Z,38.67
2023-03-23T22:40:31.835Z,39.08
2023-03-23T22:42:58.903Z,37.72
2023-03-23T22:45:27.744Z,39.80
2023-03-23T22:47:55.101Z,38.53
2023-03-23T22:50:24.081Z,39.03
2023-03-23T22:52:51.780Z,39.35
2023-03-23T22:55:18.782Z,37.88
2023-03-23T22:57:46.428Z,38.65
2023-03-23T23:00:18.591Z,38.92
2023-03-23T23:02:46.109Z,40.40
2023-03-23T23:05:13.718Z,38.42
2023-03-23T23:07:41.086Z,37.88
2023-03-23T23:10:08.404Z,37.83
2023-03-23T23:12:36.437Z,38.35
2023-03-23T23:15:05.934Z,37.08
2023-03-23T23:17:34.730Z,35.65
2023-03-23T23:20:05.509Z,36.22
2023-03-23T23:22:33.568Z,36.42
2023-03-23T23:25:00.667Z,34.75
2023-03-23T23:27:28.291Z,37.72
2023-03-23T23:29:55.300Z,37.35
2023-03-23T23:32:22.682Z,38.90
2023-03-23T23:34:49.741Z,39.13
2023-03-23T23:37:16.934Z,39.55
2023-03-23T23:39:43.908Z,38.65
2023-03-23T23:42:11.580Z,37.90
2023-03-23T23:44:39.072Z,37.67
2023-03-23T23:47:06.446Z,36.63
2023-03-23T23:49:34.292Z,37.70
2023-03-23T23:52:01.987Z,37.85
2023-03-23T23:54:32.059Z,37.25
2023-03-23T23:57:01.129Z,35.85
2023-03-23T23:59:29.046Z,34.65
